EDHL/LBC METAR and TAF weather

Enter ICAO airport designator
Station Type Date Time Source
EDHL METAR 2020/04/06 17:20 UTC NOAA

EDHL 061720Z 14005KT 100V180 CAVOK 20/03 Q1020


Station Type Date Time Source
EDHL Decoded METAR 2020/04/06 17:20 UTC NOAA

Luebeck-Blankensee, Germany (EDHL) 53-49N 010-42E 15M
Apr 06, 2020 - 01:20 PM EDT / 2020.04.06 1720 UTC
Wind: from the SE (140 degrees) at 6 MPH (5 KT) (direction variable):0
Visibility: greater than 7 mile(s):0
Temperature: 68 F (20 C)
Dew Point: 37 F (3 C)
Relative Humidity: 32%
Pressure (altimeter): 30.12 in. Hg (1020 hPa)
ob: EDHL 061720Z 14005KT 100V180 CAVOK 20/03 Q1020
cycle: 17

Station Type Date Time Source
EDHL TAF 2010/02/22 14:20 UTC NOAA

METAR EDHL 221420Z 15004KT 110V180 9999 FEW039 SCT120 05/02 Q0990
RMK X

Example: see airport list